createdAt,value
2022-10-12T00:00:02.601Z,66.73
2022-10-12T00:02:40.878Z,66.36
2022-10-12T00:05:08.980Z,66.96
2022-10-12T00:07:36.669Z,67.28
2022-10-12T00:10:06.257Z,67.18
2022-10-12T00:12:34.349Z,67.38
2022-10-12T00:15:01.736Z,67.63
2022-10-12T00:17:29.112Z,67.27
2022-10-12T00:19:56.489Z,67.46
2022-10-12T00:22:23.872Z,67.25
2022-10-12T00:24:51.248Z,67.57
2022-10-12T00:27:19.943Z,67.27
2022-10-12T00:29:47.332Z,67.25
2022-10-12T00:32:15.187Z,67.89
2022-10-12T00:34:42.595Z,67.16
2022-10-12T00:37:09.972Z,67.82
2022-10-12T00:39:37.421Z,67.63
2022-10-12T00:42:05.086Z,67.77
2022-10-12T00:44:39.165Z,67.77
2022-10-12T00:47:09.283Z,67.55
2022-10-12T00:49:36.688Z,67.42
2022-10-12T00:52:06.038Z,67.39
2022-10-12T00:54:35.143Z,67.60
2022-10-12T00:57:03.290Z,67.72
2022-10-12T00:59:32.523Z,67.81
2022-10-12T01:02:01.178Z,67.78
2022-10-12T01:04:28.581Z,67.65
2022-10-12T01:06:55.970Z,67.72
2022-10-12T01:09:23.597Z,67.94
2022-10-12T01:11:51.002Z,67.89
2022-10-12T01:14:18.416Z,67.92
2022-10-12T01:16:47.719Z,67.98
2022-10-12T01:19:25.300Z,68.17
2022-10-12T01:21:54.468Z,68.06
2022-10-12T01:24:34.462Z,68.17
2022-10-12T01:27:04.396Z,68.11
2022-10-12T01:29:40.063Z,68.33
2022-10-12T01:32:10.241Z,68.12
2022-10-12T01:34:41.975Z,68.01
2022-10-12T01:37:11.989Z,68.02
2022-10-12T01:39:41.056Z,68.06
2022-10-12T01:42:09.790Z,67.92
2022-10-12T01:44:42.022Z,67.93
2022-10-12T01:47:11.540Z,67.97
2022-10-12T01:49:38.920Z,68.06
2022-10-12T01:52:14.091Z,68.12
2022-10-12T01:54:57.840Z,68.05
2022-10-12T01:57:29.650Z,67.85
2022-10-12T02:00:02.489Z,67.75
2022-10-12T02:02:36.338Z,67.96
2022-10-12T02:05:05.250Z,67.74
2022-10-12T02:07:44.777Z,67.85
2022-10-12T02:10:13.781Z,68.23
2022-10-12T02:12:41.345Z,68.00
2022-10-12T02:15:09.219Z,67.95
2022-10-12T02:17:38.242Z,68.12
2022-10-12T02:20:06.660Z,68.25
2022-10-12T02:22:35.761Z,68.00
2022-10-12T02:25:04.486Z,68.28
2022-10-12T02:27:31.876Z,68.15
2022-10-12T02:29:59.249Z,68.04
2022-10-12T02:32:29.445Z,68.43
2022-10-12T02:34:59.384Z,68.08
2022-10-12T02:37:31.244Z,68.30
2022-10-12T02:40:01.630Z,68.19
2022-10-12T02:42:41.794Z,68.40
2022-10-12T02:45:18.117Z,68.43
2022-10-12T02:47:45.829Z,68.22
2022-10-12T02:50:14.496Z,68.41
2022-10-12T02:52:41.876Z,68.30
2022-10-12T02:55:09.395Z,68.38
2022-10-12T02:57:37.076Z,68.54
2022-10-12T03:00:05.162Z,68.41
2022-10-12T03:02:32.556Z,68.12
2022-10-12T03:04:59.959Z,68.53
2022-10-12T03:07:28.614Z,68.35
2022-10-12T03:09:56.006Z,68.68
2022-10-12T03:12:23.402Z,68.70
2022-10-12T03:14:50.775Z,68.58
2022-10-12T03:17:18.165Z,68.71
2022-10-12T03:19:45.550Z,68.41
2022-10-12T03:22:12.934Z,68.55
2022-10-12T03:24:41.612Z,68.24
2022-10-12T03:27:08.994Z,68.65
2022-10-12T03:29:36.365Z,68.68
2022-10-12T03:32:03.746Z,68.44
2022-10-12T03:34:31.122Z,68.43
2022-10-12T03:36:58.502Z,68.56
2022-10-12T03:41:54.391Z,68.46
2022-10-12T03:44:21.772Z,68.30
2022-10-12T03:46:49.147Z,68.40
2022-10-12T03:49:16.535Z,68.27
2022-10-12T03:51:43.922Z,68.48
2022-10-12T03:54:11.334Z,68.43
2022-10-12T03:56:38.699Z,68.46
2022-10-12T03:59:07.368Z,68.53
2022-10-12T04:01:34.825Z,68.34
2022-10-12T04:04:02.272Z,68.51
2022-10-12T04:06:29.653Z,68.35
2022-10-12T04:08:57.045Z,68.42
2022-10-12T04:11:24.452Z,68.17
2022-10-12T04:13:51.835Z,68.25
2022-10-12T04:16:20.628Z,68.47
2022-10-12T04:18:48.022Z,68.24
2022-10-12T04:21:16.034Z,68.49
2022-10-12T04:23:43.586Z,68.29
2022-10-12T04:26:11.122Z,68.21
2022-10-12T04:28:38.574Z,68.37
2022-10-12T04:31:06.010Z,68.46
2022-10-12T04:33:34.730Z,68.39
2022-10-12T04:36:02.105Z,68.13
2022-10-12T04:38:29.502Z,67.81
2022-10-12T04:40:57.656Z,68.27
2022-10-12T04:43:25.043Z,67.76
2022-10-12T04:45:56.243Z,68.09
2022-10-12T04:48:23.661Z,67.79
2022-10-12T04:50:52.392Z,67.83
2022-10-12T04:53:19.886Z,67.74
2022-10-12T04:55:47.296Z,68.08
2022-10-12T04:58:14.685Z,67.77
2022-10-12T05:00:42.072Z,67.87
2022-10-12T05:03:09.458Z,67.57
2022-10-12T05:05:36.849Z,67.49
2022-10-12T05:08:05.676Z,67.38
2022-10-12T05:10:33.061Z,67.44
2022-10-12T05:13:00.449Z,67.51
2022-10-12T05:17:55.438Z,67.60
2022-10-12T05:20:22.817Z,68.04
2022-10-12T05:22:50.190Z,67.63
2022-10-12T05:25:19.343Z,68.03
2022-10-12T05:27:46.714Z,68.09
2022-10-12T05:30:14.177Z,68.35
2022-10-12T05:35:10.033Z,68.09
2022-10-12T05:37:37.712Z,68.19
2022-10-12T05:40:05.992Z,68.23
2022-10-12T05:42:35.778Z,68.35
2022-10-12T05:45:03.367Z,68.55
2022-10-12T05:47:30.851Z,68.70
2022-10-12T05:49:58.253Z,69.05
2022-10-12T05:52:25.653Z,69.03
2022-10-12T05:54:53.028Z,69.02
2022-10-12T05:57:20.421Z,68.90
2022-10-12T05:59:49.088Z,68.77
2022-10-12T06:02:17.188Z,68.51
2022-10-12T06:04:44.695Z,68.53
2022-10-12T06:09:39.715Z,68.22
2022-10-12T06:12:07.375Z,68.54
2022-10-12T06:14:34.825Z,68.70
2022-10-12T06:17:03.483Z,68.71
2022-10-12T06:19:30.875Z,68.35
2022-10-12T06:21:58.485Z,68.22
2022-10-12T06:24:25.877Z,68.46
2022-10-12T06:26:53.322Z,68.47
2022-10-12T06:29:23.198Z,68.48
2022-10-12T06:31:51.829Z,68.02
2022-10-12T06:34:20.693Z,67.78
2022-10-12T06:36:48.064Z,66.88
2022-10-12T06:39:15.443Z,66.26
2022-10-12T06:41:42.844Z,65.66
2022-10-12T06:44:10.245Z,65.04
2022-10-12T06:46:37.623Z,64.26
2022-10-12T06:49:05.016Z,63.99
2022-10-12T06:51:33.769Z,63.39
2022-10-12T06:54:01.224Z,63.06
2022-10-12T06:56:28.679Z,62.50
2022-10-12T06:58:56.418Z,61.95
2022-10-12T07:01:24.016Z,62.13
2022-10-12T07:03:51.504Z,61.72
2022-10-12T07:06:19.076Z,61.11
2022-10-12T07:08:48.996Z,61.43
2022-10-12T07:11:16.551Z,61.79
2022-10-12T07:13:43.952Z,61.15
2022-10-12T07:16:11.369Z,61.02
2022-10-12T07:18:40.047Z,59.88
2022-10-12T07:21:07.502Z,61.14
2022-10-12T07:23:35.248Z,60.74
2022-10-12T07:26:03.954Z,60.58
2022-10-12T07:28:31.479Z,61.44
2022-10-12T07:31:03.081Z,61.19
2022-10-12T07:33:34.012Z,61.11
2022-10-12T07:38:49.190Z,60.88
2022-10-12T07:41:17.984Z,60.15
2022-10-12T07:43:45.360Z,60.09
2022-10-12T07:46:12.934Z,60.04
2022-10-12T07:48:45.674Z,59.77
2022-10-12T07:51:16.583Z,59.51
2022-10-12T07:53:44.232Z,59.21
2022-10-12T07:56:15.174Z,59.33
2022-10-12T07:58:44.131Z,59.54
2022-10-12T08:01:11.528Z,59.40
2022-10-12T08:03:39.019Z,59.08
2022-10-12T08:06:10.573Z,58.94
2022-10-12T08:08:37.964Z,58.47
2022-10-12T08:13:33.033Z,57.62
2022-10-12T08:16:01.790Z,57.83
2022-10-12T08:18:29.267Z,57.70
2022-10-12T08:20:56.704Z,58.17
2022-10-12T08:23:24.364Z,58.01
2022-10-12T08:25:55.276Z,58.09
2022-10-12T08:28:22.719Z,57.57
2022-10-12T08:30:50.835Z,57.73
2022-10-12T08:33:19.724Z,57.76
2022-10-12T08:35:47.632Z,58.12
2022-10-12T08:38:15.348Z,57.18
2022-10-12T08:40:44.782Z,57.46
2022-10-12T08:43:14.852Z,56.76
2022-10-12T08:45:44.771Z,57.46
2022-10-12T08:48:14.335Z,57.43
2022-10-12T08:50:45.298Z,57.52
2022-10-12T08:53:15.857Z,57.87
2022-10-12T08:55:44.215Z,57.40
2022-10-12T08:58:15.863Z,57.07
2022-10-12T09:00:43.373Z,57.41
2022-10-12T09:03:15.642Z,57.51
2022-10-12T09:05:45.275Z,57.63
2022-10-12T09:10:46.922Z,55.82
2022-10-12T09:13:34.959Z,56.73
2022-10-12T09:16:03.619Z,56.57
2022-10-12T09:18:39.626Z,56.25
2022-10-12T09:21:11.448Z,56.16
2022-10-12T09:23:39.684Z,56.09
2022-10-12T09:26:12.406Z,56.45
2022-10-12T09:28:41.332Z,55.92
2022-10-12T09:31:17.788Z,55.82
2022-10-12T09:33:46.232Z,55.50
2022-10-12T09:36:17.035Z,54.04
2022-10-12T09:38:44.408Z,53.90
2022-10-12T09:41:15.579Z,55.21
2022-10-12T09:43:42.956Z,55.26
2022-10-12T09:46:11.474Z,55.56
2022-10-12T09:48:38.892Z,55.70
2022-10-12T09:51:06.399Z,55.93
2022-10-12T09:53:36.105Z,56.12
2022-10-12T09:56:06.078Z,56.00
2022-10-12T09:58:38.480Z,56.94
2022-10-12T10:01:18.923Z,56.93
2022-10-12T10:03:47.176Z,57.29
2022-10-12T10:06:15.810Z,56.41
2022-10-12T10:08:45.270Z,57.44
2022-10-12T10:11:16.681Z,57.26
2022-10-12T10:13:51.992Z,56.64
2022-10-12T10:16:21.410Z,55.20
2022-10-12T10:18:49.391Z,54.27
2022-10-12T10:21:17.998Z,54.17
2022-10-12T10:23:51.647Z,52.63
2022-10-12T10:26:20.477Z,52.49
2022-10-12T10:28:48.306Z,52.29
2022-10-12T10:31:21.852Z,52.51
2022-10-12T10:34:04.838Z,51.44
2022-10-12T10:36:32.320Z,51.79
2022-10-12T10:39:04.723Z,50.51
2022-10-12T10:41:33.099Z,51.83
2022-10-12T10:44:00.508Z,53.32
2022-10-12T10:46:29.164Z,53.75
2022-10-12T10:48:58.818Z,53.89
2022-10-12T10:51:40.423Z,54.25
2022-10-12T10:54:15.901Z,53.99
2022-10-12T10:56:43.385Z,54.13
2022-10-12T10:59:16.100Z,53.64
2022-10-12T11:01:46.896Z,53.51
2022-10-12T11:04:15.452Z,53.44
2022-10-12T11:06:43.762Z,53.92
2022-10-12T11:09:15.673Z,51.97
2022-10-12T11:11:43.113Z,53.10
2022-10-12T11:14:15.024Z,53.38
2022-10-12T11:16:43.300Z,52.79
2022-10-12T11:19:19.048Z,53.31
2022-10-12T11:21:48.199Z,53.65
2022-10-12T11:24:18.290Z,53.31
2022-10-12T11:26:47.285Z,54.15
2022-10-12T11:29:14.829Z,53.34
2022-10-12T11:31:44.338Z,54.42
2022-10-12T11:34:14.718Z,54.43
2022-10-12T11:36:55.796Z,54.34
2022-10-12T11:39:34.025Z,54.75
2022-10-12T11:42:21.885Z,53.85
2022-10-12T11:44:49.439Z,54.45
2022-10-12T11:47:18.758Z,53.42
2022-10-12T11:49:50.361Z,54.77
2022-10-12T11:52:17.820Z,54.59
2022-10-12T11:54:49.079Z,54.57
2022-10-12T11:57:18.467Z,55.24
2022-10-12T11:59:47.505Z,55.29
2022-10-12T12:02:17.890Z,54.37
2022-10-12T12:04:45.603Z,55.63
2022-10-12T12:07:42.524Z,55.75
2022-10-12T12:10:50.492Z,56.00
2022-10-12T12:13:22.690Z,56.97
2022-10-12T12:16:30.509Z,55.83
2022-10-12T12:19:41.690Z,56.47
2022-10-12T12:22:19.853Z,54.27
2022-10-12T12:25:04.114Z,54.84
2022-10-12T12:27:37.495Z,54.38
2022-10-12T12:30:07.112Z,55.09
2022-10-12T12:32:42.672Z,55.96
2022-10-12T12:35:24.935Z,55.35
2022-10-12T12:38:01.923Z,55.65
2022-10-12T12:40:29.376Z,55.39
2022-10-12T12:43:15.245Z,55.53
2022-10-12T12:45:54.740Z,54.24
2022-10-12T12:48:55.766Z,53.72
2022-10-12T12:51:24.173Z,53.62
2022-10-12T12:53:52.150Z,54.65
2022-10-12T12:56:21.463Z,54.29
2022-10-12T12:59:05.103Z,54.83
2022-10-12T13:01:49.056Z,53.48
2022-10-12T13:04:25.096Z,54.28
2022-10-12T13:07:06.956Z,53.75
2022-10-12T13:09:42.356Z,53.86
2022-10-12T13:12:19.783Z,53.43
2022-10-12T13:14:54.679Z,53.65
2022-10-12T13:17:34.893Z,53.58
2022-10-12T13:20:02.589Z,53.59
2022-10-12T13:22:32.201Z,53.33
2022-10-12T13:25:00.364Z,53.29
2022-10-12T13:27:30.724Z,53.10
2022-10-12T13:29:59.355Z,53.25
2022-10-12T13:32:33.987Z,53.35
2022-10-12T13:35:06.226Z,53.46
2022-10-12T13:37:34.815Z,53.85
2022-10-12T13:40:02.565Z,53.42
2022-10-12T13:42:32.517Z,53.78
2022-10-12T13:44:59.892Z,53.48
2022-10-12T13:47:28.045Z,53.39
2022-10-12T13:49:56.791Z,53.74
2022-10-12T13:52:30.958Z,53.49
2022-10-12T13:54:59.461Z,53.22
2022-10-12T13:57:29.448Z,53.47
2022-10-12T13:59:58.555Z,53.31
2022-10-12T14:02:27.400Z,52.81
2022-10-12T14:04:56.576Z,52.61
2022-10-12T14:07:25.604Z,52.28
2022-10-12T14:09:55.251Z,52.77
2022-10-12T14:12:25.466Z,52.45
2022-10-12T14:14:53.143Z,52.83
2022-10-12T14:17:20.697Z,52.77
2022-10-12T14:19:49.655Z,52.04
2022-10-12T14:22:22.172Z,52.64
2022-10-12T14:24:49.608Z,52.05
2022-10-12T14:27:23.048Z,51.92
2022-10-12T14:29:56.990Z,52.80
2022-10-12T14:32:42.064Z,53.77
2022-10-12T14:35:23.558Z,52.23
2022-10-12T14:37:53.063Z,51.03
2022-10-12T14:40:35.173Z,50.37
2022-10-12T14:43:04.703Z,50.99
2022-10-12T14:45:32.374Z,50.52
2022-10-12T14:48:00.024Z,51.58
2022-10-12T14:50:27.625Z,49.00
2022-10-12T14:52:57.122Z,49.77
2022-10-12T14:55:25.889Z,48.87
2022-10-12T14:57:53.476Z,50.65
2022-10-12T15:00:21.788Z,48.97
2022-10-12T15:02:49.234Z,49.55
2022-10-12T15:05:18.155Z,49.67
2022-10-12T15:07:46.828Z,49.05
2022-10-12T15:10:15.669Z,49.31
2022-10-12T15:12:43.654Z,49.64
2022-10-12T15:15:19.479Z,50.19
2022-10-12T15:17:46.892Z,50.56
2022-10-12T15:20:14.382Z,50.43
2022-10-12T15:22:41.768Z,50.96
2022-10-12T15:25:14.937Z,50.94
2022-10-12T15:27:43.661Z,51.23
2022-10-12T15:30:12.464Z,51.45
2022-10-12T15:32:39.886Z,51.53
2022-10-12T15:35:15.524Z,51.64
2022-10-12T15:37:42.916Z,52.01
2022-10-12T15:40:11.878Z,52.12
2022-10-12T15:42:39.371Z,52.83
2022-10-12T15:45:15.318Z,52.47
2022-10-12T15:47:42.721Z,52.62
2022-10-12T15:50:10.172Z,53.11
2022-10-12T15:52:37.590Z,53.26
2022-10-12T15:55:06.875Z,53.44
2022-10-12T15:57:34.288Z,53.79
2022-10-12T16:00:01.660Z,53.96
2022-10-12T16:02:30.402Z,54.12
2022-10-12T16:04:57.813Z,54.14
2022-10-12T16:07:25.290Z,54.53
2022-10-12T16:09:52.663Z,54.50
2022-10-12T16:12:20.050Z,54.75
2022-10-12T16:14:47.525Z,54.38
2022-10-12T16:17:15.245Z,54.94
2022-10-12T16:19:44.230Z,54.88
2022-10-12T16:22:11.791Z,54.69
2022-10-12T16:24:39.211Z,55.06
2022-10-12T16:27:06.633Z,54.90
2022-10-12T16:29:34.101Z,54.55
2022-10-12T16:32:01.864Z,55.39
2022-10-12T16:34:30.758Z,55.78
2022-10-12T16:37:00.213Z,55.94
2022-10-12T16:39:27.967Z,55.66
2022-10-12T16:41:55.347Z,55.61
2022-10-12T16:44:22.746Z,55.77
2022-10-12T16:46:50.239Z,55.84
2022-10-12T16:49:17.625Z,55.97
2022-10-12T16:51:45.017Z,55.99
2022-10-12T16:54:13.664Z,56.35
2022-10-12T16:56:41.057Z,56.24
2022-10-12T16:59:08.495Z,56.11
2022-10-12T17:01:35.898Z,56.38
2022-10-12T17:06:30.641Z,56.81
2022-10-12T17:08:58.498Z,56.76
2022-10-12T17:11:27.160Z,56.87
2022-10-12T17:13:55.739Z,56.77
2022-10-12T17:16:40.968Z,56.93
2022-10-12T17:19:08.483Z,56.88
2022-10-12T17:21:37.650Z,56.91
2022-10-12T17:24:05.404Z,56.71
2022-10-12T17:26:38.596Z,57.06
2022-10-12T17:29:09.276Z,56.92
2022-10-12T17:31:36.654Z,56.94
2022-10-12T17:34:04.061Z,57.17
2022-10-12T17:36:31.448Z,57.21
2022-10-12T17:38:59.045Z,57.23
2022-10-12T17:41:26.507Z,57.36
2022-10-12T17:43:55.217Z,57.18
2022-10-12T17:46:23.005Z,57.67
2022-10-12T17:48:50.484Z,57.40
2022-10-12T17:51:18.201Z,57.46
2022-10-12T17:53:45.575Z,57.38
2022-10-12T17:56:13.644Z,57.50
2022-10-12T17:58:41.036Z,57.26
2022-10-12T18:01:10.777Z,57.30
2022-10-12T18:03:39.660Z,57.57
2022-10-12T18:06:07.600Z,57.76
2022-10-12T18:08:35.026Z,58.08
2022-10-12T18:11:02.603Z,57.93
2022-10-12T18:13:30.101Z,57.77
2022-10-12T18:15:57.969Z,58.08
2022-10-12T18:18:26.628Z,58.30
2022-10-12T18:20:54.115Z,58.26
2022-10-12T18:23:21.496Z,58.46
2022-10-12T18:25:50.722Z,58.38
2022-10-12T18:28:18.149Z,58.57
2022-10-12T18:30:49.434Z,58.33
2022-10-12T18:33:17.280Z,58.32
2022-10-12T18:35:45.944Z,58.44
2022-10-12T18:38:13.308Z,58.37
2022-10-12T18:40:42.425Z,58.35
2022-10-12T18:43:09.995Z,58.51
2022-10-12T18:49:51.698Z,58.31
2022-10-12T18:53:29.278Z,58.39
2022-10-12T18:56:55.094Z,58.40
2022-10-12T19:00:07.417Z,58.47
2022-10-12T19:03:06.957Z,58.53
2022-10-12T19:06:24.337Z,58.43
2022-10-12T19:16:20.967Z,58.44
2022-10-12T19:19:44.432Z,58.31
2022-10-12T19:22:57.255Z,58.50
2022-10-12T19:26:10.956Z,58.44
2022-10-12T19:29:18.543Z,58.51
2022-10-12T19:32:02.081Z,58.33
2022-10-12T19:34:44.755Z,58.46
2022-10-12T19:37:44.296Z,58.39
2022-10-12T19:40:44.262Z,58.31
2022-10-12T19:43:54.712Z,58.46
2022-10-12T19:47:17.583Z,58.52
2022-10-12T19:50:19.755Z,58.51
2022-10-12T19:53:28.836Z,58.62
2022-10-12T19:56:26.437Z,58.67
2022-10-12T19:59:08.525Z,58.69
2022-10-12T20:02:18.109Z,58.74
2022-10-12T20:12:00.039Z,59.10
2022-10-12T20:15:53.520Z,58.81
2022-10-12T20:19:10.260Z,59.07
2022-10-12T20:22:27.662Z,58.55
2022-10-12T20:25:40.522Z,58.59
2022-10-12T20:28:13.700Z,58.51
2022-10-12T20:30:42.967Z,58.20
2022-10-12T20:33:17.410Z,58.24
2022-10-12T20:35:50.511Z,58.15
2022-10-12T20:38:26.348Z,58.68
2022-10-12T20:41:21.470Z,59.35
2022-10-12T20:44:22.383Z,59.50
2022-10-12T20:47:05.715Z,59.96
2022-10-12T20:49:33.541Z,59.77
2022-10-12T20:52:01.019Z,59.47
2022-10-12T20:54:29.973Z,59.48
2022-10-12T20:56:57.492Z,59.54
2022-10-12T20:59:24.934Z,59.74
2022-10-12T21:01:52.429Z,59.52
2022-10-12T21:04:19.865Z,59.75
2022-10-12T21:06:47.355Z,59.65
2022-10-12T21:09:14.979Z,59.58
2022-10-12T21:11:44.356Z,59.78
2022-10-12T21:14:11.942Z,60.11
2022-10-12T21:16:39.364Z,60.34
2022-10-12T21:19:06.764Z,61.08
2022-10-12T21:21:34.182Z,61.47
2022-10-12T21:24:01.653Z,61.41
2022-10-12T21:26:30.052Z,61.33
2022-10-12T21:28:59.548Z,61.22
2022-10-12T21:31:31.789Z,60.96
2022-10-12T21:34:01.002Z,61.02
2022-10-12T21:36:28.467Z,61.01
2022-10-12T21:38:55.889Z,60.87
2022-10-12T21:41:24.096Z,60.71
2022-10-12T21:43:51.856Z,60.78
2022-10-12T21:46:21.444Z,60.60
2022-10-12T21:48:49.025Z,60.99
2022-10-12T21:51:16.551Z,60.63
2022-10-12T21:53:43.967Z,60.65
2022-10-12T21:56:15.059Z,60.72
2022-10-12T21:58:42.570Z,60.62
2022-10-12T22:01:11.206Z,60.43
2022-10-12T22:03:39.959Z,60.46
2022-10-12T22:06:09.813Z,60.53
2022-10-12T22:08:37.196Z,60.51
2022-10-12T22:11:06.370Z,60.74
2022-10-12T22:13:33.847Z,60.51
2022-10-12T22:16:02.141Z,60.46
2022-10-12T22:18:29.561Z,60.46
2022-10-12T22:20:58.311Z,60.61
2022-10-12T22:23:25.777Z,61.25
2022-10-12T22:25:53.964Z,61.70
2022-10-12T22:28:21.428Z,61.97
2022-10-12T22:30:48.838Z,62.16
2022-10-12T22:33:16.252Z,62.21
2022-10-12T22:35:52.918Z,62.34
2022-10-12T22:38:23.634Z,62.32
2022-10-12T22:44:31.161Z,62.70
2022-10-12T22:55:45.629Z,62.61
2022-10-12T22:59:00.975Z,62.62
2022-10-12T23:02:17.661Z,62.87
2022-10-12T23:05:25.281Z,62.87
2022-10-12T23:08:49.909Z,62.88
2022-10-12T23:22:52.550Z,63.72
2022-10-12T23:25:57.990Z,63.70
2022-10-12T23:28:41.305Z,63.83
2022-10-12T23:31:47.386Z,64.23
2022-10-12T23:34:57.662Z,64.21
2022-10-12T23:38:02.171Z,64.14
2022-10-12T23:41:21.454Z,64.39
2022-10-12T23:51:51.862Z,64.56
2022-10-12T23:54:35.009Z,64.96
2022-10-12T23:57:14.028Z,65.10
2022-10-12T23:59:53.379Z,65.07
